Terminal Aerodrome Forecast
Issued by NWS Austin/San Antonio, TX

Home | Current Version | Previous Version | Text Only | Print | Product List | Glossary On
Versions: 1 2 3 4 5 6 7 8 9 10 11 12 13 14 15 16 17 18 19 20 21 22 23 24 25
000
FTUS44 KEWX 301125
TAFAUS
TAF
KAUS 301125Z 3012/3118 22003KT P6SM FEW250
     FM301400 06003KT P6SM BKN015
     FM301600 08007KT P6SM SCT050 SCT250
     FM311200 03002KT 4SM BR BKN025=

USA.gov is the U.S. government's official web portal to all federal, state and local government web resources and services.